Latest Weather Observations for Naracoorte

IDS60801

Issued at 7:04 pm CDT Sunday 1 February 2015 (issued every 30 minutes, with the page automatically refreshed every 10 minutes)

About weather observations | Map of weather stations | Latest weather observations for SA | Other Formats
Station Details ID: 026099 Name: NARACOORTE AERODROME Lat: -36.98 Lon: 140.73 Height: 49.72 m
Data from the previous 72 hours. | See also: Recent months at Naracoorte
Date/Time
CDT
Temp
°C
App
Temp
°C
Dew
Point
Rel
Hum
%
Delta-T
°C
Wind Press
QNH
hPa
Press
MSL
hPa
Rain
since 9 am
mm
Dir
 
Spd
km/h
Gust
km/h
Spd
kts
Gust
kts
01/07:00pm 17.8 9.8 7.5 51 5.2 S 39 48 21 26 1017.4 1017.2 0.0
01/06:30pm 18.4 11.2 7.5 49 5.5 SSE 35 50 19 27 1017.0 1016.8 0.0
01/06:00pm 18.5 10.9 7.6 49 5.5 S 37 50 20 27 1016.9 1016.7 0.0
01/05:30pm 20.2 12.3 7.9 45 6.4 S 39 52 21 28 1016.3 1016.2 0.0
01/05:00pm 20.0 12.3 7.1 43 6.6 SSE 37 50 20 27 1016.3 1016.2 0.0
01/04:30pm 20.7 12.7 7.3 42 6.9 S 39 54 21 29 1016.3 1016.2 0.0
01/04:00pm 21.2 13.1 7.1 40 7.2 S 39 52 21 28 1016.1 1016.0 0.0
01/03:30pm 21.5 13.4 7.0 39 7.4 S 39 52 21 28 1016.1 1016.0 0.0
01/03:17pm 21.7 14.8 7.2 39 7.5 S 33 52 18 28 1016.1 1016.0 0.0
01/03:00pm 21.9 14.6 7.3 39 7.5 S 35 48 19 26 1016.1 1016.0 0.0
01/02:30pm 21.2 13.9 7.1 40 7.2 S 35 50 19 27 1016.1 1016.0 0.0
01/02:00pm 21.3 14.8 8.2 43 6.9 S 32 46 17 25 1016.2 1016.1 0.0
01/01:30pm 20.1 15.0 10.5 54 5.2 SSE 28 37 15 20 1016.6 1016.5 0.0
01/01:00pm 19.0 13.7 10.0 56 4.8 S 28 44 15 24 1016.7 1016.6 0.0
01/12:30pm 18.8 12.7 9.8 56 4.8 S 32 43 17 23 1017.2 1017.0 0.0
01/12:00pm 18.7 12.5 9.2 54 5.0 SSE 32 43 17 23 1017.2 1017.0 0.0
01/11:30am 17.8 13.1 9.4 58 4.4 S 24 33 13 18 1017.4 1017.2 0.0
01/11:00am 17.8 12.5 9.7 59 4.3 S 28 43 15 23 1017.4 1017.2 0.0
01/10:30am 17.1 11.1 10.0 63 3.7 S 32 41 17 22 1017.4 1017.2 0.0
01/10:00am 15.8 10.9 11.2 74 2.5 SSE 28 35 15 19 1017.3 1017.1 0.0
01/09:30am 14.1 10.0 12.7 91 0.8 S 26 33 14 18 1017.4 1017.2 0.0
01/09:00am 13.3 8.2 12.0 92 0.7 SSE 30 43 16 23 1017.4 1017.2 0.0
01/08:30am 14.2 9.0 10.2 77 2.1 S 28 35 15 19 1017.1 1016.9 0.0
01/08:00am 13.8 8.7 10.6 81 1.7 S 28 37 15 20 1016.7 1016.6 0.0
01/07:30am 13.2 10.2 10.7 85 1.3 S 17 20 9 11 1016.4 1016.3 0.0
01/07:00am 12.9 9.4 10.8 87 1.1 S 20 24 11 13 1016.1 1016.0 0.0
01/06:30am 12.4 8.1 10.8 90 0.8 S 24 28 13 15 1015.8 1015.7 0.0
01/06:00am 12.3 8.6 10.2 87 1.1 S 20 24 11 13 1015.4 1015.3 0.0
01/05:30am 13.0 8.2 10.2 83 1.4 SSW 26 32 14 17 1015.2 1015.1 0.0
01/05:00am 12.8 8.1 9.3 79 1.8 S 24 32 13 17 1015.1 1015.0 0.0
01/04:30am 13.8 9.8 9.0 73 2.4 S 20 26 11 14 1015.0 1014.9 0.0
01/04:00am 14.5 9.6 8.5 67 3.0 S 24 30 13 16 1015.2 1015.1 0.0
01/03:30am 14.5 9.1 8.0 65 3.2 S 26 35 14 19 1015.2 1015.1 0.0
01/03:00am 14.5 9.1 8.0 65 3.2 S 26 33 14 18 1015.5 1015.4 0.0
01/02:30am 14.5 9.7 8.7 68 2.9 S 24 30 13 16 1015.7 1015.6 0.0
01/02:00am 14.5 9.4 9.1 70 2.8 SSE 26 32 14 17 1015.8 1015.7 0.0
01/01:30am 14.7 8.3 8.4 66 3.2 S 32 35 17 19 1016.0 1015.9 0.0
01/01:00am 14.8 9.5 8.3 65 3.3 S 26 39 14 21 1016.1 1016.0 0.0
01/12:30am 14.7 9.8 8.6 67 3.1 SSE 24 32 13 17 1016.4 1016.3 0.0
01/12:00am 14.8 11.0 9.0 68 3.0 SSE 19 24 10 13 1016.4 1016.3 0.0
 
Date/Time
CDT
Temp
°C
App
Temp
°C
Dew
Point
Rel
Hum
%
Delta-T
°C
Wind Press
QNH
hPa
Press
MSL
hPa
Rain
since 9 am
mm
Dir
 
Spd
km/h
Gust
km/h
Spd
kts
Gust
kts
31/11:30pm 14.2 10.0 8.4 68 2.9 SSE 20 30 11 16 1016.1 1016.0 0.0
31/11:00pm 11.3 7.8 7.2 76 2.0 SSE 15 17 8 9 1016.4 1016.3 0.0
31/10:30pm 12.0 8.2 7.7 75 2.1 SSE 17 19 9 10 1016.6 1016.5 0.0
31/10:00pm 12.3 8.5 7.4 72 2.4 SSE 17 19 9 10 1016.4 1016.3 0.0
31/09:30pm 13.3 8.9 7.3 67 2.9 S 20 28 11 15 1016.1 1016.0 0.0
31/09:00pm 13.9 9.0 7.0 63 3.4 S 22 28 12 15 1015.9 1015.8 0.0
31/08:30pm 14.9 8.9 7.0 59 3.9 S 28 35 15 19 1015.7 1015.6 0.0
31/08:00pm 16.1 8.8 7.1 55 4.5 S 35 46 19 25 1015.5 1015.4 0.0
31/07:30pm 17.6 10.3 7.4 51 5.1 S 35 46 19 25 1015.1 1015.0 0.0
31/07:00pm 18.4 10.3 7.2 48 5.7 S 39 50 21 27 1014.8 1014.7 0.0
31/06:30pm 19.6 12.6 7.0 44 6.4 S 33 46 18 25 1014.6 1014.5 0.0
31/06:00pm 20.0 13.0 6.7 42 6.7 S 33 46 18 25 1014.1 1014.0 0.0
31/05:45pm 20.5 13.6 7.2 42 6.8 S 33 46 18 25 1014.0 1013.9 0.0
31/05:30pm 21.0 13.3 7.3 41 7.0 S 37 50 20 27 1014.0 1013.9 0.0
31/05:00pm 21.8 14.2 7.6 40 7.4 S 37 52 20 28 1014.0 1013.9 0.0
31/04:30pm 22.0 14.5 7.8 40 7.4 S 37 52 20 28 1014.0 1013.9 0.0
31/04:06pm 22.7 15.2 8.0 39 7.7 S 37 56 20 30 1014.1 1014.0 0.0
31/04:00pm 22.6 15.7 7.2 37 8.0 S 33 46 18 25 1014.1 1014.0 0.0
31/03:41pm 22.7 15.9 6.9 36 8.1 S 32 52 17 28 1014.1 1014.0 0.0
31/03:30pm 22.6 15.3 7.2 37 8.0 S 35 46 19 25 1014.4 1014.3 0.0
31/03:00pm 20.8 13.8 8.4 45 6.5 S 35 44 19 24 1014.6 1014.5 0.0
31/02:30pm 21.2 14.3 8.8 45 6.6 S 35 50 19 27 1014.5 1014.4 0.0
31/02:00pm 20.6 13.6 8.6 46 6.3 S 35 56 19 30 1014.3 1014.2 0.0
31/01:59pm 21.1 14.5 8.7 45 6.5 S 33 56 18 30 1014.5 1014.4 0.0
31/01:30pm 22.9 15.6 8.6 40 7.6 SSE 37 48 20 26 1014.7 1014.6 0.0
31/01:00pm 20.7 14.0 7.3 42 6.9 S 32 46 17 25 1014.9 1014.8 0.0
31/12:31pm 21.5 15.4 8.1 42 7.0 S 30 50 16 27 1015.3 1015.2 0.0
31/12:30pm 20.9 15.0 8.9 46 6.3 S 30 43 16 23 1015.4 1015.3 0.0
31/12:00pm 19.8 13.8 8.8 49 5.8 SSE 30 43 16 23 1015.8 1015.7 0.0
31/11:30am 20.0 15.0 9.6 51 5.5 SSE 26 33 14 18 1015.8 1015.7 0.0
31/11:00am 18.3 12.7 8.6 53 5.0 SSE 28 35 15 19 1015.9 1015.8 0.0
31/10:30am 17.9 12.1 7.9 52 5.1 SE 28 35 15 19 1016.1 1016.0 0.0
31/10:00am 17.6 12.1 9.0 57 4.5 SSE 28 37 15 20 1016.2 1016.1 0.0
31/09:30am 16.8 11.3 9.0 60 4.0 SSE 28 37 15 20 1016.2 1016.1 0.0
31/09:00am 16.1 10.6 9.3 64 3.5 SSE 28 37 15 20 1015.9 1015.8 0.0
31/08:30am 15.7 13.5 10.7 72 2.7 S 13 19 7 10 1015.8 1015.7 0.0
31/08:00am 14.5 12.7 10.7 78 2.0 SSW 11 17 6 9 1015.2 1015.1 0.0
31/07:30am 13.0 11.1 10.5 85 1.3 S 11 13 6 7 1014.6 1014.5 0.0
31/07:00am 13.0 11.5 10.5 85 1.3 S 9 15 5 8 1014.4 1014.3 0.0
31/06:30am 12.3 10.8 10.7 90 0.8 S 9 13 5 7 1014.2 1014.1 0.0
31/06:00am 11.3 11.3 9.7 90 0.8 CALM 0 0 0 0 1014.2 1014.1 0.0
31/05:30am 11.3 11.3 9.9 91 0.7 CALM 0 0 0 0 1014.3 1014.2 0.0
31/05:00am 10.5 10.3 9.1 91 0.7 CALM 0 0 0 0 1014.6 1014.5 0.0
31/04:30am 10.5 8.7 9.4 93 0.5 SSW 9 9 5 5 1014.8 1014.7 0.0
31/04:00am 9.5 7.5 8.6 94 0.4 SSE 9 11 5 6 1014.4 1014.3 0.0
31/03:30am 8.9 6.4 8.0 94 0.4 SSE 11 13 6 7 1014.5 1014.4 0.0
31/03:00am 8.8 7.1 7.7 93 0.5 S 6 7 3 4 1014.8 1014.7 0.0
31/02:30am 8.9 8.0 7.7 92 0.6 S 2 6 1 3 1014.9 1014.8 0.0
31/02:00am 8.4 7.7 7.0 91 0.7 CALM 0 2 0 1 1014.9 1014.8 0.0
31/01:30am 8.8 6.4 7.1 89 0.8 S 9 9 5 5 1015.1 1015.0 0.0
31/01:00am 9.3 6.2 7.4 88 0.9 S 13 13 7 7 1015.2 1015.1 0.0
31/12:30am 9.9 7.3 7.8 87 1.0 SSE 11 13 6 7 1015.4 1015.3 0.0
31/12:00am 10.0 7.3 7.4 84 1.2 SSE 11 15 6 8 1015.4 1015.3 0.0
 
Date/Time
CDT
Temp
°C
App
Temp
°C
Dew
Point
Rel
Hum
%
Delta-T
°C
Wind Press
QNH
hPa
Press
MSL
hPa
Rain
since 9 am
mm
Dir
 
Spd
km/h
Gust
km/h
Spd
kts
Gust
kts
30/11:30pm 11.3 8.0 8.0 80 1.6 SSE 15 17 8 9 1015.6 1015.5 0.0
30/11:00pm 11.8 8.1 8.1 78 1.8 SSE 17 19 9 10 1015.6 1015.5 0.0
30/10:30pm 12.5 8.8 8.0 74 2.2 SSE 17 20 9 11 1015.7 1015.6 0.0
30/10:00pm 13.5 9.5 8.1 70 2.7 SSE 19 24 10 13 1015.7 1015.6 0.0
30/09:30pm 14.5 9.5 8.0 65 3.2 S 24 28 13 15 1015.6 1015.5 0.0
30/09:00pm 15.4 9.2 7.7 60 3.8 S 30 37 16 20 1015.1 1015.0 0.0
30/08:30pm 16.4 10.5 7.3 55 4.5 S 28 33 15 18 1014.8 1014.7 0.0
30/08:00pm 17.7 10.1 7.7 52 5.1 S 37 46 20 25 1014.4 1014.3 0.0
30/07:30pm 19.2 11.8 8.2 49 5.7 S 37 46 20 25 1014.1 1014.0 0.0
30/07:00pm 20.5 13.1 8.5 46 6.3 S 37 46 20 25 1013.9 1013.8 0.0
30/06:30pm 21.6 14.3 8.8 44 6.8 S 37 48 20 26 1013.6 1013.5 0.0
30/06:00pm 23.0 15.8 9.0 41 7.5 S 37 50 20 27 1013.2 1013.1 0.0
30/05:30pm 24.1 17.5 7.7 35 8.7 S 32 44 17 24 1013.3 1013.2 0.0
30/05:00pm 24.9 18.7 6.1 30 9.7 S 28 35 15 19 1013.3 1013.2 0.0
30/04:30pm 24.0 18.5 5.8 31 9.3 SSE 24 41 13 22 1013.6 1013.5 0.0
30/04:00pm 24.4 19.6 5.7 30 9.5 SSE 20 32 11 17 1013.7 1013.6 0.0
30/03:30pm 24.1 19.1 4.5 28 9.8 S 20 32 11 17 1014.1 1014.0 0.0
30/03:00pm 24.2 19.7 4.0 27 10.0 SSE 17 30 9 16 1014.5 1014.4 0.0
30/02:30pm 23.5 19.2 3.4 27 9.8 SSE 15 33 8 18 1015.0 1014.9 0.0
30/02:00pm 22.7 17.4 2.8 27 9.5 SSE 20 39 11 21 1015.6 1015.5 0.0
30/01:30pm 22.8 18.4 4.8 31 8.9 SSE 17 26 9 14 1015.9 1015.8 0.0
30/01:00pm 23.0 17.9 5.9 33 8.7 SSE 22 32 12 17 1016.4 1016.3 0.0
30/12:30pm 23.1 19.3 6.0 33 8.7 SSW 15 32 8 17 1016.9 1016.7 0.0
30/12:00pm 22.6 19.2 7.6 38 7.8 SE 15 30 8 16 1017.4 1017.2 0.0
30/11:30am 21.0 17.3 8.0 43 6.8 S 17 24 9 13 1017.7 1017.5 0.0
30/11:00am 20.5 17.0 8.8 47 6.2 SSE 17 26 9 14 1017.9 1017.7 0.0
30/10:30am 19.1 15.8 8.1 49 5.7 SSE 15 20 8 11 1018.1 1017.9 0.0
30/10:00am 19.2 15.9 9.7 54 5.1 SSE 17 28 9 15 1018.3 1018.1 0.0
30/09:30am 17.6 14.2 9.2 58 4.4 SE 17 22 9 12 1018.6 1018.4 0.0
30/09:00am 16.6 12.8 9.8 64 3.6 SE 20 26 11 14 1018.6 1018.4 0.0
30/08:30am 14.6 11.9 10.2 75 2.3 SSE 15 19 8 10 1018.8 1018.6 0.0
30/08:00am 11.9 8.6 9.5 85 1.2 SSE 17 19 9 10 1018.5 1018.3 0.0
30/07:30am 10.0 7.3 8.9 93 0.5 SSE 13 19 7 10 1018.2 1018.0 0.0
30/07:00am 8.2 5.1 7.4 95 0.4 S 13 15 7 8 1018.0 1017.8 0.0
30/06:30am 7.3 4.0 6.6 95 0.3 S 13 15 7 8 1018.0 1017.8 0.0
30/06:00am 7.7 4.2 7.0 95 0.3 SSE 15 17 8 9 1017.9 1017.7 0.0
30/05:30am 8.1 5.0 7.2 94 0.4 SSE 13 13 7 7 1017.5 1017.3 0.0
30/05:00am 8.6 5.9 7.5 93 0.5 SSE 11 13 6 7 1017.3 1017.1 0.0
30/04:30am 9.2 5.9 8.1 93 0.5 S 15 17 8 9 1017.2 1017.0 0.0
30/04:00am 10.1 6.6 8.7 91 0.7 S 17 17 9 9 1017.2 1017.0 0.0
30/03:30am 10.6 7.4 8.5 87 1.0 S 15 19 8 10 1017.4 1017.2 0.0
30/03:00am 12.3 8.9 9.3 82 1.5 SSE 17 22 9 12 1017.4 1017.2 0.0
30/02:30am 12.8 8.8 9.1 78 1.9 SSE 20 28 11 15 1017.3 1017.1 0.0
30/02:00am 13.2 9.4 8.9 75 2.2 SE 19 24 10 13 1017.5 1017.3 0.0
30/01:30am 13.4 9.3 8.7 73 2.4 SE 20 28 11 15 1017.5 1017.3 0.0
30/01:00am 13.9 9.0 8.5 70 2.7 SE 24 32 13 17 1017.6 1017.4 0.0
30/12:30am 14.4 9.1 8.4 67 3.0 SE 26 33 14 18 1017.8 1017.6 0.0
30/12:00am 14.7 9.6 7.7 63 3.5 SE 24 33 13 18 1018.0 1017.8 0.0
 
Date/Time
CDT
Temp
°C
App
Temp
°C
Dew
Point
Rel
Hum
%
Delta-T
°C
Wind Press
QNH
hPa
Press
MSL
hPa
Rain
since 9 am
mm
Dir
 
Spd
km/h
Gust
km/h
Spd
kts
Gust
kts
29/11:30pm 14.9 10.0 7.0 59 3.9 SE 22 32 12 17 1018.1 1017.9 0.0
29/11:00pm 15.1 10.6 6.1 55 4.3 SE 19 26 10 14 1018.3 1018.1 0.0
29/10:30pm 16.2 10.2 5.5 49 5.1 SE 26 33 14 18 1018.3 1018.1 0.0
29/10:00pm 16.5 11.5 4.5 45 5.7 SE 20 32 11 17 1018.3 1018.1 0.0
29/09:30pm 17.8 10.8 4.0 40 6.5 SE 30 35 16 19 1017.9 1017.7 0.0
29/09:00pm 18.6 11.5 3.6 37 7.0 SE 30 39 16 21 1017.5 1017.3 0.0
29/08:30pm 19.6 13.2 3.3 34 7.7 SE 26 37 14 20 1017.2 1017.0 0.0
29/08:00pm 21.4 14.7 3.6 31 8.6 SE 28 37 15 20 1016.5 1016.4 0.0
29/07:30pm 22.8 15.5 4.3 30 9.1 ESE 32 46 17 25 1016.2 1016.1 0.0

Other Formats:

Comma delimited format used in spreadsheet applications
http://www.bom.gov.au/fwo/IDS60801/IDS60801.94820.axf

JavaScript Object Notation format (JSON) in row-major order
http://www.bom.gov.au/fwo/IDS60801/IDS60801.94820.json